Time;durP1;ratioP1;P1;durP2;ratioP2;P2;SDS_P1;SDS_P2;PMS_P1;PMS_P2;Temp;Humidity;BMP_temperature;BMP_pressure;BME280_temperature;BME280_humidity;BME280_pressure;Samples;Min_cycle;Max_cycle;Signal;HPM_P1;HPM_P2
2023/11/24 00:00:14;;;;;;;;;;;;;;;5.88;100.00;96480.47;5105696;28;20062;-74
2023/11/24 00:02:40;;;;;;;;;;;;;;;5.86;100.00;96472.84;5106248;28;19948;-73
2023/11/24 00:05:07;;;;;;;;;;;;;;;5.83;100.00;96459.38;5121668;28;19938;-73
2023/11/24 00:07:36;;;;;;;;;;;;;;;5.82;100.00;96447.38;5104440;28;19950;-74
2023/11/24 00:10:04;;;;;;;;;;;;;;;5.80;100.00;96437.16;5104927;28;19946;-73
2023/11/24 00:12:30;;;;;;;;;;;;;;;5.79;100.00;96435.53;5105201;28;19936;-73
2023/11/24 00:14:56;;;;;;;;;;;;;;;5.78;100.00;96433.94;5105613;28;19934;-73
2023/11/24 00:17:22;;;;;;;;;;;;;;;5.77;100.00;96424.50;5105497;28;19987;-74
2023/11/24 00:19:48;;;;;;;;;;;;;;;5.75;100.00;96421.28;5121871;28;19951;-81
2023/11/24 00:22:14;;;;;;;;;;;;;;;5.74;100.00;96414.47;5121157;28;19944;-81
2023/11/24 00:24:39;;;;;;;;;;;;;;;5.74;100.00;96416.28;5106041;28;19941;-81
2023/11/24 00:27:06;;;;;;;;;;;;;;;5.72;100.00;96426.88;5105234;28;19999;-81
2023/11/24 00:29:32;;;;;;;;;;;;;;;5.70;100.00;96423.66;5105178;28;19950;-81
2023/11/24 00:31:58;;;;;;;;;;;;;;;5.72;100.00;96415.66;5105918;28;20022;-81
2023/11/24 00:34:24;;;;;;;;;;;;;;;5.70;100.00;96408.84;5105372;28;20135;-81
2023/11/24 00:36:50;;;;;;;;;;;;;;;5.69;100.00;96411.63;5105255;28;19943;-72
2023/11/24 00:39:17;;;;;;;;;;;;;;;5.72;100.00;96418.28;5104939;28;19967;-82
2023/11/24 00:41:43;;;;;;;;;;;;;;;5.71;100.00;96404.44;5104721;28;20249;-81
2023/11/24 00:44:08;;;;;;;;;;;;;;;5.73;100.00;96396.44;5104482;28;20004;-81
2023/11/24 00:46:35;;;;;;;;;;;;;;;5.73;100.00;96386.84;5105419;28;19956;-81
2023/11/24 00:49:01;;;;;;;;;;;;;;;5.73;100.00;96378.22;5120696;28;19934;-81
2023/11/24 00:51:26;;;;;;;;;;;;;;;5.74;100.00;96378.06;5105302;28;19934;-81
2023/11/24 00:53:53;;;;;;;;;;;;;;;5.76;100.00;96370.88;5121508;28;19985;-73
2023/11/24 00:56:18;;;;;;;;;;;;;;;5.77;100.00;96366.47;5086672;28;19949;-81
2023/11/24 00:58:44;;;;;;;;;;;;;;;5.74;100.00;96357.25;5104195;28;19942;-81
2023/11/24 01:01:11;;;;;;;;;;;;;;;5.75;100.00;96353.63;5104615;28;20000;-81
2023/11/24 01:03:38;;;;;;;;;;;;;;;5.75;100.00;96345.03;5104595;28;19949;-80
2023/11/24 01:06:04;;;;;;;;;;;;;;;5.75;100.00;96342.41;5105152;28;19943;-81
2023/11/24 01:08:33;;;;;;;;;;;;;;;5.74;100.00;96331.22;5104521;28;19945;-82
2023/11/24 01:11:01;;;;;;;;;;;;;;;5.73;100.00;96319.19;5104518;28;19951;-73
2023/11/24 01:13:31;;;;;;;;;;;;;;;5.70;100.00;96309.16;5120456;28;19933;-72
2023/11/24 01:15:57;;;;;;;;;;;;;;;5.69;100.00;96318.78;5120299;28;19943;-72
2023/11/24 01:18:25;;;;;;;;;;;;;;;5.70;100.00;96316.97;5104923;28;19965;-72
2023/11/24 01:20:51;;;;;;;;;;;;;;;5.68;100.00;96317.16;5120110;28;20262;-72
2023/11/24 01:23:16;;;;;;;;;;;;;;;5.70;100.00;96312.56;5120946;28;19939;-73
2023/11/24 01:25:42;;;;;;;;;;;;;;;5.70;100.00;96314.38;5104372;28;20108;-72
2023/11/24 01:28:10;;;;;;;;;;;;;;;5.69;100.00;96308.38;5105119;28;20090;-73
2023/11/24 01:30:37;;;;;;;;;;;;;;;5.71;100.00;96315.97;5104237;28;20131;-71
2023/11/24 01:33:03;;;;;;;;;;;;;;;5.72;100.00;96309.00;5086283;28;19949;-73
2023/11/24 01:35:28;;;;;;;;;;;;;;;5.72;100.00;96309.78;5119930;28;19942;-74
2023/11/24 01:37:54;;;;;;;;;;;;;;;5.73;100.00;96311.38;5104276;28;19985;-73
2023/11/24 01:40:20;;;;;;;;;;;;;;;5.75;100.00;96316.41;5104052;28;20170;-73
2023/11/24 01:42:46;;;;;;;;;;;;;;;5.78;100.00;96313.44;5104163;28;20014;-73
2023/11/24 01:45:12;;;;;;;;;;;;;;;5.81;100.00;96316.44;5104817;28;20024;-73
2023/11/24 01:47:38;;;;;;;;;;;;;;;5.84;100.00;96323.09;5119919;28;19942;-72
2023/11/24 01:50:04;;;;;;;;;;;;;;;5.86;100.00;96323.69;5119805;28;19940;-72
2023/11/24 01:52:31;;;;;;;;;;;;;;;5.87;100.00;96339.09;5102914;28;20126;-76
2023/11/24 01:54:57;;;;;;;;;;;;;;;5.89;100.00;96331.91;5107942;28;19946;-77
2023/11/24 01:57:23;;;;;;;;;;;;;;;5.89;100.00;96323.31;5124728;28;19943;-76
2023/11/24 01:59:49;;;;;;;;;;;;;;;5.87;100.00;96331.28;5124704;28;19951;-76
2023/11/24 02:02:15;;;;;;;;;;;;;;;5.87;100.00;96328.69;5123894;28;19960;-75
2023/11/24 02:04:41;;;;;;;;;;;;;;;5.86;100.00;96321.09;5123869;28;19971;-76
2023/11/24 02:07:07;;;;;;;;;;;;;;;5.85;100.00;96320.28;5108773;28;19945;-73
2023/11/24 02:09:34;;;;;;;;;;;;;;;5.84;100.00;96317.88;5107928;28;19954;-72
2023/11/24 02:12:00;;;;;;;;;;;;;;;5.83;100.00;96316.25;5124487;28;19944;-71
2023/11/24 02:14:25;;;;;;;;;;;;;;;5.82;100.00;96307.66;5107341;28;19949;-72
2023/11/24 02:16:51;;;;;;;;;;;;;;;5.81;100.00;96310.44;5107276;28;19942;-71
2023/11/24 02:19:17;;;;;;;;;;;;;;;5.77;100.00;96298.81;5123581;28;19934;-72
2023/11/24 02:21:44;;;;;;;;;;;;;;;5.75;100.00;96303.38;5107943;28;19992;-71
2023/11/24 02:24:10;;;;;;;;;;;;;;;5.74;100.00;96287.00;5123466;28;19947;-72
2023/11/24 02:26:35;;;;;;;;;;;;;;;5.73;100.00;96293.16;5107237;28;19950;-72
2023/11/24 02:29:01;;;;;;;;;;;;;;;5.70;100.00;96285.75;5123464;28;19947;-70
2023/11/24 02:31:27;;;;;;;;;;;;;;;5.69;100.00;96284.13;5124117;28;19941;-71
2023/11/24 02:33:53;;;;;;;;;;;;;;;5.66;100.00;96274.91;5089295;28;19947;-70
2023/11/24 02:36:27;;;;;;;;;;;;;;;5.63;100.00;96282.31;5124010;28;19944;-71
2023/11/24 02:38:56;;;;;;;;;;;;;;;5.62;100.00;96278.09;5106135;28;19972;-71
2023/11/24 02:41:22;;;;;;;;;;;;;;;5.61;100.00;96266.91;5107196;28;19960;-71
2023/11/24 02:43:48;;;;;;;;;;;;;;;5.61;100.00;96264.28;5123583;28;19962;-71
2023/11/24 02:46:15;;;;;;;;;;;;;;;5.61;100.00;96263.50;5106783;28;19940;-79
2023/11/24 02:48:42;;;;;;;;;;;;;;;5.59;100.00;96263.69;5107104;28;19937;-78
2023/11/24 02:51:08;;;;;;;;;;;;;;;5.60;100.00;96264.47;5107072;28;19941;-80
2023/11/24 02:53:36;;;;;;;;;;;;;;;5.58;100.00;96264.66;5107009;28;19942;-78
2023/11/24 02:56:03;;;;;;;;;;;;;;;5.57;100.00;96267.47;5107016;28;19944;-78
2023/11/24 02:58:29;;;;;;;;;;;;;;;5.56;100.00;96260.66;5107385;28;19985;-78
2023/11/24 03:00:55;;;;;;;;;;;;;;;5.55;100.00;96256.47;5106826;28;19958;-78
2023/11/24 03:03:22;;;;;;;;;;;;;;;5.56;100.00;96261.44;5106874;28;20089;-74
2023/11/24 03:05:50;;;;;;;;;;;;;;;5.55;100.00;96252.06;5106211;28;20131;-72
2023/11/24 03:08:17;;;;;;;;;;;;;;;5.56;100.00;96239.84;5122564;28;19954;-71
2023/11/24 03:10:43;;;;;;;;;;;;;;;5.56;100.00;96234.63;5122648;28;19939;-71
2023/11/24 03:13:09;;;;;;;;;;;;;;;5.56;100.00;96232.03;5122580;28;19939;-72
2023/11/24 03:15:35;;;;;;;;;;;;;;;5.55;100.00;96239.03;5106042;28;19966;-72
2023/11/24 03:18:01;;;;;;;;;;;;;;;5.53;100.00;96220.22;5123171;28;19946;-71
2023/11/24 03:20:27;;;;;;;;;;;;;;;5.55;100.00;96220.03;5122274;28;19943;-75
2023/11/24 03:22:54;;;;;;;;;;;;;;;5.56;100.00;96214.63;5107025;28;19960;-71
2023/11/24 03:25:20;;;;;;;;;;;;;;;5.55;100.00;96213.03;5122296;28;19950;-71
2023/11/24 03:27:46;;;;;;;;;;;;;;;5.54;100.00;96208.00;5105628;28;20156;-70
2023/11/24 03:30:12;;;;;;;;;;;;;;;5.53;100.00;96209.81;5106886;28;20027;-71
2023/11/24 03:32:38;;;;;;;;;;;;;;;5.53;100.00;96211.63;5107057;28;19936;-70
2023/11/24 03:35:05;;;;;;;;;;;;;;;5.54;100.00;96214.00;5122931;28;20111;-71
2023/11/24 03:37:31;;;;;;;;;;;;;;;5.51;100.00;96209.22;5105998;28;19981;-71
2023/11/24 03:39:57;;;;;;;;;;;;;;;5.51;100.00;96203.22;5106727;28;20015;-71
2023/11/24 03:42:23;;;;;;;;;;;;;;;5.53;100.00;96203.81;5106013;28;20137;-72
2023/11/24 03:44:49;;;;;;;;;;;;;;;5.52;100.00;96197.00;5122029;28;19954;-72
2023/11/24 03:47:16;;;;;;;;;;;;;;;5.51;100.00;96188.41;5121751;28;19984;-72
2023/11/24 03:49:42;;;;;;;;;;;;;;;5.49;100.00;96191.19;5106472;28;20207;-71
2023/11/24 03:52:07;;;;;;;;;;;;;;;5.49;100.00;96187.78;5104738;28;19941;-72
2023/11/24 03:54:33;;;;;;;;;;;;;;;5.50;100.00;96178.97;5087760;28;19943;-72
2023/11/24 03:56:59;;;;;;;;;;;;;;;5.49;100.00;96174.78;5105829;28;20055;-72
2023/11/24 03:59:25;;;;;;;;;;;;;;;5.48;100.00;96174.00;5106246;28;19931;-72
2023/11/24 04:01:51;;;;;;;;;;;;;;;5.51;100.00;96172.00;5121444;28;19955;-75
2023/11/24 04:04:17;;;;;;;;;;;;;;;5.51;100.00;96172.00;5122340;28;19975;-75
2023/11/24 04:06:43;;;;;;;;;;;;;;;5.52;100.00;96168.38;5105579;28;20222;-76
2023/11/24 04:09:10;;;;;;;;;;;;;;;5.48;100.00;96167.97;5106422;28;20205;-76
2023/11/24 04:11:35;;;;;;;;;;;;;;;5.49;100.00;96180.00;5106100;28;19942;-75
2023/11/24 04:14:01;;;;;;;;;;;;;;;5.49;100.00;96180.78;5105391;28;19939;-75
2023/11/24 04:16:29;;;;;;;;;;;;;;;5.49;100.00;96170.38;5105693;28;19940;-73
2023/11/24 04:18:55;;;;;;;;;;;;;;;5.50;100.00;96165.97;5104718;28;19939;-72
2023/11/24 04:21:21;;;;;;;;;;;;;;;5.51;100.00;96153.78;5106050;28;19954;-72
2023/11/24 04:23:47;;;;;;;;;;;;;;;5.49;100.00;96141.78;5121054;28;19943;-72
2023/11/24 04:26:13;;;;;;;;;;;;;;;5.51;100.00;96156.41;5121049;28;19943;-72
2023/11/24 04:28:39;;;;;;;;;;;;;;;5.50;100.00;96150.38;5104769;28;20239;-72
2023/11/24 04:31:05;;;;;;;;;;;;;;;5.49;100.00;96144.38;5105180;28;19936;-72
2023/11/24 04:33:31;;;;;;;;;;;;;;;5.51;100.00;96146.00;5120800;28;19961;-73
2023/11/24 04:35:57;;;;;;;;;;;;;;;5.52;100.00;96150.19;5104529;28;19938;-74
2023/11/24 04:38:23;;;;;;;;;;;;;;;5.53;100.00;96142.19;5121076;28;19974;-73
2023/11/24 04:40:49;;;;;;;;;;;;;;;5.55;100.00;96144.59;5104643;28;20136;-73
2023/11/24 04:43:15;;;;;;;;;;;;;;;5.55;100.00;96132.41;5105672;28;19998;-73
2023/11/24 04:45:42;;;;;;;;;;;;;;;5.55;100.00;96129.00;5104809;28;19943;-72
2023/11/24 04:48:08;;;;;;;;;;;;;;;5.53;100.00;96125.78;5105365;28;19940;-72
2023/11/24 04:50:34;;;;;;;;;;;;;;;5.53;100.00;96121.38;5105541;28;20006;-73
2023/11/24 04:53:01;;;;;;;;;;;;;;;5.52;100.00;96098.97;5105015;28;20223;-73
2023/11/24 04:55:26;;;;;;;;;;;;;;;5.52;100.00;96105.97;5104985;28;19938;-75
2023/11/24 04:57:52;;;;;;;;;;;;;;;5.52;100.00;96108.56;5120586;28;19999;-75
2023/11/24 05:00:18;;;;;;;;;;;;;;;5.51;100.00;96099.19;5104637;28;19937;-74
2023/11/24 05:02:44;;;;;;;;;;;;;;;5.53;100.00;96092.78;5104450;28;19952;-74
2023/11/24 05:05:10;;;;;;;;;;;;;;;5.54;100.00;96098.78;5105357;28;19940;-75
2023/11/24 05:07:36;;;;;;;;;;;;;;;5.57;100.00;96091.41;5120866;28;19938;-74
2023/11/24 05:10:03;;;;;;;;;;;;;;;5.58;100.00;96085.19;5104505;28;19942;-69
2023/11/24 05:12:29;;;;;;;;;;;;;;;5.60;100.00;96077.19;5120181;28;20027;-73
2023/11/24 05:14:55;;;;;;;;;;;;;;;5.61;100.00;96076.22;5104412;28;19935;-72
2023/11/24 05:17:21;;;;;;;;;;;;;;;5.60;100.00;96077.19;5104349;28;20002;-72
2023/11/24 05:19:47;;;;;;;;;;;;;;;5.60;100.00;96074.59;5104867;28;19942;-71
2023/11/24 05:22:13;;;;;;;;;;;;;;;5.59;100.00;96070.41;5104705;28;20013;-72
2023/11/24 05:24:39;;;;;;;;;;;;;;;5.58;100.00;96074.78;5103159;28;19937;-72
2023/11/24 05:27:05;;;;;;;;;;;;;;;5.59;100.00;96060.00;5120123;28;19942;-72
2023/11/24 05:29:31;;;;;;;;;;;;;;;5.61;100.00;96074.41;5104428;28;19945;-73
2023/11/24 05:31:57;;;;;;;;;;;;;;;5.61;100.00;96068.41;5103849;28;19945;-70
2023/11/24 05:34:25;;;;;;;;;;;;;;;5.68;100.00;96062.22;5119066;28;19946;-70
2023/11/24 05:36:50;;;;;;;;;;;;;;;5.76;100.00;96063.84;5104332;28;19936;-70
2023/11/24 05:39:16;;;;;;;;;;;;;;;5.83;100.00;96061.25;5119729;28;19967;-70
2023/11/24 05:41:44;;;;;;;;;;;;;;;5.94;100.00;96052.06;5102789;28;19961;-70
2023/11/24 05:44:11;;;;;;;;;;;;;;;6.05;100.00;96044.50;5103250;28;20135;-70
2023/11/24 05:46:38;;;;;;;;;;;;;;;6.12;100.00;96039.28;5119989;28;19986;-71
2023/11/24 05:49:04;;;;;;;;;;;;;;;6.17;100.00;96031.66;5120638;28;20123;-73
2023/11/24 05:51:30;;;;;;;;;;;;;;;6.22;100.00;96026.69;5102855;28;19938;-76
2023/11/24 05:53:56;;;;;;;;;;;;;;;6.27;100.00;96028.69;5104492;28;20224;-75
2023/11/24 05:56:22;;;;;;;;;;;;;;;6.29;100.00;96024.06;5104671;28;19937;-76
2023/11/24 05:58:48;;;;;;;;;;;;;;;6.32;100.00;96018.47;5104142;28;19939;-76
2023/11/24 06:01:14;;;;;;;;;;;;;;;6.35;100.00;96023.28;5103834;28;19963;-75
2023/11/24 06:03:40;;;;;;;;;;;;;;;6.36;100.00;96018.84;5103837;28;19935;-76
2023/11/24 06:06:06;;;;;;;;;;;;;;;6.37;100.00;96025.69;5104622;28;20011;-71
2023/11/24 06:08:32;;;;;;;;;;;;;;;6.38;100.00;96030.66;5104094;28;20130;-79
2023/11/24 06:10:57;;;;;;;;;;;;;;;6.39;100.00;96028.88;5104603;28;19937;-72
2023/11/24 06:13:23;;;;;;;;;;;;;;;6.39;100.00;96021.06;5103750;28;19938;-73
2023/11/24 06:15:49;;;;;;;;;;;;;;;6.40;100.00;96027.88;5118695;28;19946;-72
2023/11/24 06:18:15;;;;;;;;;;;;;;;6.40;100.00;96025.25;5104265;28;19950;-72
2023/11/24 06:20:41;;;;;;;;;;;;;;;6.40;100.00;96025.25;5104433;28;19940;-72
2023/11/24 06:23:07;;;;;;;;;;;;;;;6.42;100.00;96029.25;5104118;28;19957;-72
2023/11/24 06:25:33;;;;;;;;;;;;;;;6.43;100.00;96030.88;5119443;28;19945;-73
2023/11/24 06:27:59;;;;;;;;;;;;;;;6.43;100.00;96028.28;5120191;28;19949;-79
2023/11/24 06:30:24;;;;;;;;;;;;;;;6.45;100.00;96028.88;5103592;28;19950;-78
2023/11/24 06:32:51;;;;;;;;;;;;;;;6.46;100.00;96032.28;5104083;28;19947;-78
2023/11/24 06:35:17;;;;;;;;;;;;;;;6.45;100.00;96030.69;5103711;28;19934;-78
2023/11/24 06:37:43;;;;;;;;;;;;;;;6.43;100.00;96033.47;5103359;28;20327;-78
2023/11/24 06:40:11;;;;;;;;;;;;;;;6.46;100.00;96045.28;5103235;28;19938;-78
2023/11/24 06:42:40;;;;;;;;;;;;;;;6.45;100.00;96031.47;5107192;28;19961;-71
2023/11/24 06:45:09;;;;;;;;;;;;;;;6.46;100.00;96034.88;5107211;28;19960;-73
2023/11/24 06:47:39;;;;;;;;;;;;;;;6.45;100.00;96030.69;5107387;28;19934;-73
2023/11/24 06:50:12;;;;;;;;;;;;;;;6.44;100.00;96029.06;5105983;28;19939;-73
2023/11/24 06:52:39;;;;;;;;;;;;;;;6.39;100.00;96024.47;5107859;28;19945;-73
2023/11/24 06:55:06;;;;;;;;;;;;;;;6.25;100.00;96022.88;5122946;28;19944;-73
2023/11/24 06:57:32;;;;;;;;;;;;;;;6.10;100.00;96016.06;5107540;28;19928;-73
2023/11/24 06:59:58;;;;;;;;;;;;;;;6.01;100.00;96019.88;5107224;28;19937;-73
2023/11/24 07:02:24;;;;;;;;;;;;;;;5.97;100.00;96023.06;5106867;28;19999;-70
2023/11/24 07:04:50;;;;;;;;;;;;;;;5.94;100.00;96015.63;5107469;28;19939;-75
2023/11/24 07:07:16;;;;;;;;;;;;;;;5.94;100.00;96018.22;5107344;28;19938;-74
2023/11/24 07:09:42;;;;;;;;;;;;;;;5.96;100.00;96027.44;5123470;28;20116;-74
2023/11/24 07:12:12;;;;;;;;;;;;;;;5.96;100.00;96035.25;5107500;28;20235;-74
2023/11/24 07:14:38;;;;;;;;;;;;;;;5.93;100.00;96035.63;5106658;28;19941;-74
2023/11/24 07:17:06;;;;;;;;;;;;;;;5.87;100.00;96037.22;5106574;28;19933;-74
2023/11/24 07:19:31;;;;;;;;;;;;;;;5.83;100.00;96043.81;5107065;28;20083;-75
2023/11/24 07:21:57;;;;;;;;;;;;;;;5.81;100.00;96034.63;5089216;28;19960;-72
2023/11/24 07:24:23;;;;;;;;;;;;;;;5.74;100.00;96021.59;5122287;28;20054;-71
2023/11/24 07:26:49;;;;;;;;;;;;;;;5.69;100.00;96019.59;5107248;28;19987;-69
2023/11/24 07:29:15;;;;;;;;;;;;;;;5.68;100.00;96028.38;5122998;28;19945;-69
2023/11/24 07:31:41;;;;;;;;;;;;;;;5.68;100.00;96015.38;5106830;28;19997;-69
2023/11/24 07:34:07;;;;;;;;;;;;;;;5.67;100.00;96003.38;5107120;28;19939;-69
2023/11/24 07:36:33;;;;;;;;;;;;;;;5.67;100.00;96000.78;5106995;28;19948;-70
2023/11/24 07:38:58;;;;;;;;;;;;;;;5.67;100.00;96000.78;5122135;28;19972;-72
2023/11/24 07:41:25;;;;;;;;;;;;;;;5.69;100.00;95990.16;5106184;28;19941;-68
2023/11/24 07:43:50;;;;;;;;;;;;;;;5.69;100.00;95983.19;5106160;28;19961;-68
2023/11/24 07:46:17;;;;;;;;;;;;;;;5.77;100.00;95995.16;5106652;28;19959;-68
2023/11/24 07:48:43;;;;;;;;;;;;;;;5.89;100.00;95996.19;5106612;28;19947;-68
2023/11/24 07:51:10;;;;;;;;;;;;;;;5.86;100.00;96004.41;5122345;28;20013;-68
2023/11/24 07:53:36;;;;;;;;;;;;;;;5.83;100.00;96002.19;5105850;28;19947;-68
2023/11/24 07:56:03;;;;;;;;;;;;;;;5.83;100.00;95993.59;5105614;28;19943;-69
2023/11/24 07:58:29;;;;;;;;;;;;;;;5.82;100.00;95982.38;5105793;28;19942;-72
2023/11/24 08:00:55;;;;;;;;;;;;;;;5.80;100.00;95981.00;5105851;28;19935;-74
2023/11/24 08:03:22;;;;;;;;;;;;;;;5.72;100.00;95983.78;5105745;28;19992;-74
2023/11/24 08:05:52;;;;;;;;;;;;;;;5.69;100.00;95977.16;5105712;28;19943;-73
2023/11/24 08:08:18;;;;;;;;;;;;;;;5.67;100.00;95976.56;5105586;28;19943;-74
2023/11/24 08:10:44;;;;;;;;;;;;;;;5.73;100.00;95974.97;5105622;28;19935;-73
2023/11/24 08:13:10;;;;;;;;;;;;;;;5.74;100.00;95961.75;5104473;28;19935;-73
2023/11/24 08:15:36;;;;;;;;;;;;;;;5.74;100.00;95963.56;5105298;28;19948;-74
2023/11/24 08:18:02;;;;;;;;;;;;;;;5.73;100.00;95957.53;5106031;28;19955;-73
2023/11/24 08:20:28;;;;;;;;;;;;;;;5.70;100.00;95952.75;5105336;28;20002;-74
2023/11/24 08:22:54;;;;;;;;;;;;;;;5.70;100.00;95943.13;5105818;28;19958;-73
2023/11/24 08:25:19;;;;;;;;;;;;;;;5.67;100.00;95937.56;5104223;28;20221;-73
2023/11/24 08:27:46;;;;;;;;;;;;;;;5.64;100.00;95933.53;5105730;28;19937;-74
2023/11/24 08:30:12;;;;;;;;;;;;;;;5.62;100.00;95930.31;5105703;28;19939;-73
2023/11/24 08:32:39;;;;;;;;;;;;;;;5.57;100.00;95930.13;5105183;28;19936;-69
2023/11/24 08:35:05;;;;;;;;;;;;;;;5.52;100.00;95936.91;5104022;28;19945;-71
2023/11/24 08:37:31;;;;;;;;;;;;;;;5.48;100.00;95942.53;5101227;28;19974;-84
2023/11/24 08:39:58;;;;;;;;;;;;;;;5.44;100.00;95932.72;5121550;28;20019;-84
2023/11/24 08:42:24;;;;;;;;;;;;;;;5.40;100.00;95932.31;5105394;28;19964;-84
2023/11/24 08:44:50;;;;;;;;;;;;;;;5.46;100.00;95936.72;5104927;28;20011;-84
2023/11/24 08:47:16;;;;;;;;;;;;;;;5.71;100.00;95938.72;5105029;28;19932;-85
2023/11/24 08:49:42;;;;;;;;;;;;;;;5.98;100.00;95933.56;5105382;28;19970;-84
2023/11/24 08:52:09;;;;;;;;;;;;;;;6.20;100.00;95924.53;5105698;28;19942;-71
2023/11/24 08:54:36;;;;;;;;;;;;;;;6.21;100.00;95923.53;5105421;28;19938;-84
2023/11/24 08:57:05;;;;;;;;;;;;;;;6.15;100.00;95932.13;5104758;28;19949;-84
2023/11/24 08:59:31;;;;;;;;;;;;;;;6.03;100.00;95915.56;5104702;28;19931;-84
2023/11/24 09:01:58;;;;;;;;;;;;;;;6.00;100.00;95921.16;5105203;28;19956;-86
2023/11/24 09:04:27;;;;;;;;;;;;;;;5.99;100.00;95909.16;5104171;28;20255;-85
2023/11/24 09:06:53;;;;;;;;;;;;;;;5.98;100.00;95907.53;5104636;28;19962;-86
2023/11/24 09:09:19;;;;;;;;;;;;;;;6.05;100.00;95908.34;5105427;28;19940;-72
2023/11/24 09:11:46;;;;;;;;;;;;;;;6.08;100.00;95902.72;5104517;28;19936;-72
2023/11/24 09:14:12;;;;;;;;;;;;;;;6.15;100.00;95908.72;5104532;28;19948;-77
2023/11/24 09:16:38;;;;;;;;;;;;;;;6.21;100.00;95900.09;5121067;28;19960;-77
2023/11/24 09:19:04;;;;;;;;;;;;;;;6.23;100.00;95897.28;5105142;28;19950;-77
2023/11/24 09:21:34;;;;;;;;;;;;;;;6.24;100.00;95881.47;5104485;28;19996;-76
2023/11/24 09:24:00;;;;;;;;;;;;;;;6.19;100.00;95868.25;5104143;28;19993;-77
2023/11/24 09:26:29;;;;;;;;;;;;;;;6.26;100.00;95876.06;5104161;28;20120;-77
2023/11/24 09:28:55;;;;;;;;;;;;;;;6.38;100.00;95878.81;5104176;28;19942;-73
2023/11/24 09:31:21;;;;;;;;;;;;;;;6.53;100.00;95889.00;5104251;28;20284;-69
2023/11/24 09:33:48;;;;;;;;;;;;;;;6.58;100.00;95876.16;5104907;28;20130;-68
2023/11/24 09:36:14;;;;;;;;;;;;;;;6.53;100.00;95879.38;5119759;28;19940;-68
2023/11/24 09:38:40;;;;;;;;;;;;;;;6.63;100.00;95876.34;5102725;28;19973;-68
2023/11/24 09:41:07;;;;;;;;;;;;;;;6.83;100.00;95881.47;5104046;28;20021;-68
2023/11/24 09:43:34;;;;;;;;;;;;;;;7.09;100.00;95873.50;5120607;28;20250;-68
2023/11/24 09:46:00;;;;;;;;;;;;;;;7.36;100.00;95856.88;5104385;28;19942;-68
2023/11/24 09:48:27;;;;;;;;;;;;;;;7.62;100.00;95861.91;5104047;28;19978;-73
2023/11/24 09:50:53;;;;;;;;;;;;;;;7.84;100.00;95848.47;5119930;28;20137;-77
2023/11/24 09:53:19;;;;;;;;;;;;;;;8.03;100.00;95831.81;5102756;28;20134;-77
2023/11/24 09:55:45;;;;;;;;;;;;;;;8.20;100.00;95846.91;5120383;28;19958;-77
2023/11/24 09:58:11;;;;;;;;;;;;;;;8.29;100.00;95809.84;5120570;28;20203;-77
2023/11/24 10:00:38;;;;;;;;;;;;;;;8.43;100.00;95820.16;5104018;28;19975;-77
2023/11/24 10:03:06;;;;;;;;;;;;;;;8.47;100.00;95816.09;5120538;28;19957;-77
2023/11/24 10:05:32;;;;;;;;;;;;;;;8.48;100.00;95844.63;5103878;28;19950;-73
2023/11/24 10:07:59;;;;;;;;;;;;;;;8.28;100.00;95836.97;5103980;28;20134;-71
2023/11/24 10:10:28;;;;;;;;;;;;;;;7.89;100.00;95846.78;5120497;28;19945;-73
2023/11/24 10:12:56;;;;;;;;;;;;;;;7.47;100.00;95835.31;5104420;28;19979;-72
2023/11/24 10:15:23;;;;;;;;;;;;;;;7.17;100.00;95848.19;5105048;28;19936;-72
2023/11/24 10:17:48;;;;;;;;;;;;;;;7.01;100.00;95839.06;5124497;28;20123;-72
2023/11/24 10:20:18;;;;;;;;;;;;;;;6.92;100.00;95822.88;5107842;28;19943;-72
2023/11/24 10:22:45;;;;;;;;;;;;;;;6.94;100.00;95822.66;5108059;28;20454;-73
2023/11/24 10:25:11;;;;;;;;;;;;;;;6.94;100.00;95817.44;5107949;28;19942;-74
2023/11/24 10:27:40;;;;;;;;;;;;;;;6.98;100.00;95813.41;5124398;28;19942;-84
2023/11/24 10:30:06;;;;;;;;;;;;;;;7.01;100.00;95810.38;5123849;28;19948;-84
2023/11/24 10:32:32;;;;;;;;;;;;;;;7.05;100.00;95803.72;5108233;28;20016;-83
2023/11/24 10:35:00;;;;;;;;;;;;;;;7.10;100.00;95806.53;5107632;28;19941;-82
2023/11/24 10:37:27;;;;;;;;;;;;;;;7.12;100.00;95799.28;5123880;28;20232;-83
2023/11/24 10:39:57;;;;;;;;;;;;;;;7.02;100.00;95794.53;5107387;28;19949;-83
2023/11/24 10:42:24;;;;;;;;;;;;;;;6.96;100.00;95789.38;5107450;28;20147;-72
2023/11/24 10:44:54;;;;;;;;;;;;;;;6.86;100.00;95790.63;5123190;28;19960;-76
2023/11/24 10:47:26;;;;;;;;;;;;;;;6.83;100.00;95788.44;5105230;28;20108;-76
2023/11/24 10:49:57;;;;;;;;;;;;;;;6.76;100.00;95787.69;5108042;28;19939;-76
2023/11/24 10:52:29;;;;;;;;;;;;;;;6.63;100.00;95787.75;5123577;28;19958;-76
2023/11/24 10:55:16;;;;;;;;;;;;;;;6.54;100.00;95795.00;5107165;28;19947;-76
2023/11/24 10:57:43;;;;;;;;;;;;;;;6.39;100.00;95789.28;5123863;28;19936;-74
2023/11/24 11:00:09;;;;;;;;;;;;;;;6.18;100.00;95779.97;5107540;28;20115;-72
2023/11/24 11:02:42;;;;;;;;;;;;;;;5.93;100.00;95767.59;5106954;28;19966;-71
2023/11/24 11:05:17;;;;;;;;;;;;;;;5.78;100.00;95761.84;5122899;28;19941;-72
2023/11/24 11:07:52;;;;;;;;;;;;;;;5.70;100.00;95770.66;5107511;28;20186;-72
2023/11/24 11:10:26;;;;;;;;;;;;;;;5.61;100.00;95771.88;5106868;28;19940;-72
2023/11/24 11:12:53;;;;;;;;;;;;;;;5.57;100.00;95776.69;5107641;28;20218;-72
2023/11/24 11:15:24;;;;;;;;;;;;;;;5.56;100.00;95774.28;5106807;28;19944;-72
2023/11/24 11:18:25;;;;;;;;;;;;;;;5.49;100.00;95776.88;5122605;28;19936;-72
2023/11/24 11:20:52;;;;;;;;;;;;;;;5.40;100.00;95768.50;5028323;28;19946;-78
2023/11/24 11:23:23;;;;;;;;;;;;;;;5.40;100.00;95755.50;5089383;28;19954;-75
2023/11/24 11:25:53;;;;;;;;;;;;;;;5.54;100.00;95753.66;5123000;28;19935;-75
2023/11/24 11:28:20;;;;;;;;;;;;;;;5.70;100.00;95747.25;5107316;28;19940;-75
2023/11/24 11:30:46;;;;;;;;;;;;;;;5.96;100.00;95735.97;5106502;28;19937;-76
2023/11/24 11:33:14;;;;;;;;;;;;;;;6.28;100.00;95738.66;5106509;28;19940;-75
2023/11/24 11:35:44;;;;;;;;;;;;;;;6.61;100.00;95735.06;5106424;28;19943;-76
2023/11/24 11:38:15;;;;;;;;;;;;;;;7.02;100.00;95713.72;5106142;28;19986;-74
2023/11/24 11:40:44;;;;;;;;;;;;;;;7.37;100.00;95715.84;5107113;28;19957;-74
2023/11/24 11:43:13;;;;;;;;;;;;;;;7.48;100.00;95711.72;5106600;28;19957;-72
2023/11/24 11:45:48;;;;;;;;;;;;;;;7.45;100.00;95693.88;5106943;28;19940;-74
2023/11/24 11:48:15;;;;;;;;;;;;;;;7.43;100.00;95695.91;5106376;28;20231;-73
2023/11/24 11:51:00;;;;;;;;;;;;;;;7.45;100.00;95688.66;5106037;28;20146;-73
2023/11/24 11:53:29;;;;;;;;;;;;;;;7.45;100.00;95696.47;5122496;28;19960;-73
2023/11/24 11:55:56;;;;;;;;;;;;;;;7.46;100.00;95674.59;5105910;28;19947;-70
2023/11/24 11:58:24;;;;;;;;;;;;;;;7.50;100.00;95681.00;5105986;28;19939;-80
2023/11/24 12:00:50;;;;;;;;;;;;;;;7.51;100.00;95678.13;5105819;28;19944;-82
2023/11/24 12:03:20;;;;;;;;;;;;;;;7.41;100.00;95669.22;5105777;28;19958;-82
2023/11/24 12:05:47;;;;;;;;;;;;;;;7.28;100.00;95665.75;5105777;28;19945;-82
2023/11/24 12:08:16;;;;;;;;;;;;;;;7.05;100.00;95655.94;5106502;28;19947;-83
2023/11/24 12:10:42;;;;;;;;;;;;;;;6.81;100.00;95647.13;5106149;28;19941;-82
2023/11/24 12:13:08;;;;;;;;;;;;;;;6.60;100.00;95657.94;5106169;28;19936;-83
2023/11/24 12:15:38;;;;;;;;;;;;;;;6.39;100.00;95657.25;5105545;28;19936;-70
2023/11/24 12:18:07;;;;;;;;;;;;;;;6.23;100.00;95678.59;5105553;28;19940;-73
2023/11/24 12:20:36;;;;;;;;;;;;;;;6.15;100.00;95669.22;5105444;28;19937;-73
2023/11/24 12:23:08;;;;;;;;;;;;;;;6.20;100.00;95668.59;5121224;28;19957;-74
2023/11/24 12:25:34;;;;;;;;;;;;;;;6.38;100.00;95662.66;5121488;28;19945;-74
2023/11/24 12:28:04;;;;;;;;;;;;;;;6.57;100.00;95642.72;5105896;28;19936;-73
2023/11/24 12:30:35;;;;;;;;;;;;;;;6.63;100.00;95632.22;5104144;28;19948;-73
2023/11/24 12:33:01;;;;;;;;;;;;;;;6.60;100.00;95640.47;5106097;28;20110;-84
2023/11/24 12:35:27;;;;;;;;;;;;;;;6.49;100.00;95638.56;5105239;28;19959;-84
2023/11/24 12:37:53;;;;;;;;;;;;;;;6.35;100.00;95631.88;5104985;28;19970;-84
2023/11/24 12:40:22;;;;;;;;;;;;;;;6.17;100.00;95642.97;5104885;28;19939;-83
2023/11/24 12:42:47;;;;;;;;;;;;;;;6.01;100.00;95665.91;5105787;28;20157;-84
2023/11/24 12:45:13;;;;;;;;;;;;;;;5.86;100.00;95647.94;5104971;28;19955;-83